Astoria, OR

11:10 AM PDT on September 21, 2014 (GMT -0700)
The Slope of South | Change Station
CLOSE
Current Station
Personal Weather Station
Location: Astoria, OR
Elevation: 213 ft
Nearby Weather Stations

Elev 213 ft 46.18 °N, 123.84 °W | Updated 4 minutes ago

Overcast
Overcast
64.8 °F
Feels Like 64.8 °F
N
4.2
Wind Variable Wind from NNW

Today
High -- | Low -- °F
--% Chance of Precip.
Yesterday
High -- | Low -- °F
Precip. -- in
7:01 AM 7:14 PM
Waning Crescent, 6% visible
Pressure 29.92 in
Visibility 10.0 miles
Clouds Overcast 1300 ft
Dew Point 59 °F
Humidity 81%
Rainfall 0.00 in
Snow Depth 0 in , 0 in , 0 in
UV 1 out of 12
Pollen 1.10 out of 12
Air Quality Not available.
Flu Activity Not available.
METAR KAST 211755Z AUTO 19003KT 10SM OVC013 17/13 A2992 RMK AO2 SLP132 T01720133 10172 20133 52007 $

More Conditions Fewer Conditions

Pressure 29.92 in
Visibility 10.0 miles
Clouds Overcast 1300 ft
Dew Point 59 °F
Humidity 81%
Rainfall 0.00 in
Snow Depth 0 in , 0 in , 0 in
UV 1 out of 12
Pollen 1.10 out of 12
Air Quality Not available.
Flu Activity Not available.
METAR KAST 211755Z AUTO 19003KT 10SM OVC013 17/13 A2992 RMK AO2 SLP132 T01720133 10172 20133 52007 $

More Conditions Fewer Conditions

10-Day Weather Forecast

Almanac

Astronomy

Sep. 21, 2014 Rise Set
Actual Time 7:01 AM PDT 7:14 PM PDT
Civil Twilight 6:31 AM PDT 7:44 PM PDT
Nautical Twilight 5:55 AM PDT 8:19 PM PDT
Astronomical Twilight 5:19 AM PDT 8:55 PM PDT
Moon 4:33 AM PDT 5:58 PM PDT
Length of Visible Light 13h 13m
Length of Day
12h 13m
Tomorrow will be 3m 14s shorter.
Waning Crescent, 6% of the Moon is Illuminated
Today
Waning Crescent
Sep 24
New
Oct 1
First Quarter
Oct 8
Full
Oct 15
Last Quarter

Today's Extremes

State Highs State Lows

Community

WunderPhotos

Upload Photos

1,755,213 photos uploaded!

WunderBlogs® & News

Nearby

Snow Depth

Station Depth Elevation
Gerber Reservoir 0 in 4850 ft
Peavine Ridge 0 in 3500 ft
Madison Butte 0 in 5250 ft
Snow Mountain 0 in 6220 ft
Schneider Meadows 0 in 5400 ft

Earthquake Activity

City Distance Mag. Time & Date
No recent earthquake activity has been reported nearby.
Minimum magnitude displayed is 2.5.

Coastal Water Temperatures

Place Temperature
Astoria, OR 66.0 °F
Garibaldi, Tillamook Bay, OR 54.0 °F
Westport, WA 61.0 °F

Nearby Weather Stations